Time;durP1;ratioP1;P1;durP2;ratioP2;P2;SDS_P1;SDS_P2;PMS_P1;PMS_P2;Temp;Humidity;BMP_temperature;BMP_pressure;BME280_temperature;BME280_humidity;BME280_pressure;Samples;Min_cycle;Max_cycle;Signal;HPM_P1;HPM_P2
2023/04/03 00:01:07;;;;;;;;;32.67;29.67;;;;;10.63;100.00;102160.81;5059136;28;45379;-77
2023/04/03 00:03:33;;;;;;;;;40.75;36.25;;;;;10.61;100.00;102160.09;5059841;28;45361;-77
2023/04/03 00:05:58;;;;;;;;;40.00;34.67;;;;;10.57;100.00;102156.06;5059143;28;45429;-77
2023/04/03 00:08:24;;;;;;;;;29.33;26.33;;;;;10.63;100.00;102174.13;5074518;28;45888;-78
2023/04/03 00:10:49;;;;;;;;;38.33;33.67;;;;;10.63;100.00;102173.25;5059100;28;45332;-78
2023/04/03 00:13:15;;;;;;;;;39.00;33.75;;;;;10.48;100.00;102158.56;5059478;28;45377;-78
2023/04/03 00:15:40;;;;;;;;;40.00;34.50;;;;;10.62;100.00;102168.94;5059182;28;45367;-77
2023/04/03 00:18:06;;;;;;;;;32.00;31.00;;;;;10.63;100.00;102174.13;5057848;28;47325;-78
2023/04/03 00:20:33;;;;;;;;;43.75;35.00;;;;;10.55;100.00;102166.81;5058961;28;45246;-78
2023/04/03 00:22:58;;;;;;;;;36.33;29.33;;;;;10.65;100.00;102174.78;5059458;28;45304;-78
2023/04/03 00:25:24;;;;;;;;;43.00;35.75;;;;;10.60;100.00;102177.88;5057512;28;46125;-77
2023/04/03 00:27:50;;;;;;;;;37.50;35.25;;;;;10.65;100.00;102180.13;5058949;28;45450;-78
2023/04/03 00:30:18;;;;;;;;;34.67;32.33;;;;;10.60;100.00;102175.22;5058880;28;45342;-77
2023/04/03 00:32:43;;;;;;;;;39.50;35.00;;;;;10.64;100.00;102183.75;5059368;28;45254;-77
2023/04/03 00:35:09;;;;;;;;;35.00;33.33;;;;;10.58;100.00;102166.56;5061187;28;46526;-77
2023/04/03 00:37:34;;;;;;;;;41.50;34.75;;;;;10.62;100.00;102167.09;5079240;28;45390;-77
2023/04/03 00:40:00;;;;;;;;;31.33;27.67;;;;;10.69;100.00;102186.81;5079073;28;45234;-77
2023/04/03 00:42:25;;;;;;;;;32.33;30.33;;;;;10.72;100.00;102177.75;5061062;28;45368;-77
2023/04/03 00:44:56;;;;;;;;;30.33;30.00;;;;;10.77;100.00;102187.97;5079125;28;45337;-77
2023/04/03 00:47:23;;;;;;;;;38.75;33.50;;;;;10.52;100.00;102184.84;5079243;28;46385;-78
2023/04/03 00:49:50;;;;;;;;;34.33;32.33;;;;;10.76;100.00;102184.47;5078917;28;45337;-77
2023/04/03 00:52:19;;;;;;;;;36.75;33.50;;;;;10.73;100.00;102187.41;5078896;28;45281;-77
2023/04/03 00:54:47;;;;;;;;;34.67;31.67;;;;;10.65;100.00;102189.94;5078736;28;45470;-77
2023/04/03 00:57:14;;;;;;;;;39.50;34.75;;;;;10.56;100.00;102178.28;5060544;28;48144;-77
2023/04/03 00:59:44;;;;;;;;;36.00;34.25;;;;;10.75;100.00;102192.56;5077516;28;45340;-77
2023/04/03 01:02:10;;;;;;;;;34.00;33.00;;;;;10.64;100.00;102181.09;5060786;28;45283;-77
2023/04/03 01:04:38;;;;;;;;;35.00;29.33;;;;;10.59;100.00;102180.66;5078631;28;45407;-77
2023/04/03 01:07:17;;;;;;;;;27.50;24.50;;;;;10.65;100.00;102193.41;5078771;28;46207;-77
2023/04/03 01:09:45;;;;;;;;;42.75;36.50;;;;;10.62;100.00;102176.91;5060191;28;45336;-77
2023/04/03 01:12:25;;;;;;;;;36.50;32.75;;;;;10.55;100.00;102166.81;5078861;28;45339;-78
2023/04/03 01:14:55;;;;;;;;;30.50;29.50;;;;;10.57;100.00;102185.31;5078741;28;45319;-77
2023/04/03 01:17:37;;;;;;;;;35.00;32.67;;;;;10.61;100.00;102189.34;5078436;28;46410;-77
2023/04/03 01:20:11;;;;;;;;;27.00;26.00;;;;;10.58;100.00;102189.63;5078914;28;45288;-77
2023/04/03 01:23:10;;;;;;;;;45.00;36.25;;;;;10.58;100.00;102181.66;5078375;28;45236;-77
2023/04/03 01:25:42;;;;;;;;;42.67;35.33;;;;;10.57;100.00;102180.81;5059977;28;46201;-77
2023/04/03 01:28:10;;;;;;;;;38.00;33.75;;;;;10.49;100.00;102170.03;5060250;28;47948;-77
2023/04/03 01:30:45;;;;;;;;;40.00;35.75;;;;;10.62;100.00;102180.38;5078156;28;45249;-77
2023/04/03 01:33:10;;;;;;;;;39.50;35.00;;;;;10.56;100.00;102170.31;5078675;28;45421;-77
2023/04/03 01:35:36;;;;;;;;;40.75;35.50;;;;;10.55;100.00;102169.47;5078293;28;45329;-78
2023/04/03 01:38:01;;;;;;;;;46.75;36.25;;;;;10.56;100.00;102175.63;5081836;28;46639;-77
2023/04/03 01:40:26;;;;;;;;;34.67;33.67;;;;;10.54;100.00;102178.41;5081848;28;45260;-77
2023/04/03 01:42:52;;;;;;;;;35.67;34.00;;;;;10.59;100.00;102176.19;5063484;28;51622;-77
2023/04/03 01:45:17;;;;;;;;;42.75;36.25;;;;;10.62;100.00;102187.53;5063412;28;45925;-77
2023/04/03 01:47:42;;;;;;;;;34.75;33.00;;;;;10.55;100.00;102174.81;5081717;28;45585;-77
2023/04/03 01:50:08;;;;;;;;;42.75;36.25;;;;;10.59;100.00;102178.84;5081469;28;45273;-77
2023/04/03 01:52:33;;;;;;;;;22.25;17.00;;;;;10.64;100.00;102185.56;5063236;28;45317;-77
2023/04/03 01:54:58;;;;;;;;;39.50;35.25;;;;;10.58;100.00;102177.19;5081360;28;47127;-77
2023/04/03 01:57:24;;;;;;;;;33.50;31.50;;;;;10.56;100.00;102172.97;5081913;28;47127;-77
2023/04/03 01:59:49;;;;;;;;;34.00;31.67;;;;;10.61;100.00;102178.72;5080213;28;45170;-78
2023/04/03 02:02:15;;;;;;;;;43.00;35.50;;;;;10.55;100.00;102176.59;5081895;28;45410;-78
2023/04/03 02:04:41;;;;;;;;;32.67;29.00;;;;;10.54;100.00;102175.75;5081413;28;45240;-77
2023/04/03 02:07:06;;;;;;;;;43.67;34.00;;;;;10.63;100.00;102179.44;5081351;28;45914;-77
2023/04/03 02:09:31;;;;;;;;;33.33;29.67;;;;;10.58;100.00;102171.00;5080978;28;51969;-77
2023/04/03 02:11:56;;;;;;;;;35.33;32.33;;;;;10.62;100.00;102182.22;5063463;28;45295;-78
2023/04/03 02:14:23;;;;;;;;;27.67;27.67;;;;;10.61;100.00;102181.38;5081387;28;45731;-77
2023/04/03 02:16:49;;;;;;;;;36.67;33.33;;;;;10.53;100.00;102171.44;5063297;28;47198;-77
2023/04/03 02:19:14;;;;;;;;;35.33;32.33;;;;;10.57;100.00;102185.31;5062754;28;45374;-77
2023/04/03 02:21:40;;;;;;;;;33.00;30.67;;;;;10.53;100.00;102181.25;5081547;28;45377;-77
2023/04/03 02:24:05;;;;;;;;;31.67;30.00;;;;;10.52;100.00;102177.72;5080927;28;45450;-77
2023/04/03 02:26:31;;;;;;;;;28.00;26.33;;;;;10.56;100.00;102181.78;5079924;28;47894;-77
2023/04/03 02:28:56;;;;;;;;;34.00;32.67;;;;;10.35;100.00;102139.34;5064807;27;45394;-79
2023/04/03 02:31:21;;;;;;;;;27.00;26.00;;;;;10.54;100.00;102174.94;5052985;28;45312;-77
2023/04/03 02:33:47;;;;;;;;;26.67;26.67;;;;;10.46;100.00;102180.94;5077288;28;45537;-77
2023/04/03 02:36:12;;;;;;;;;33.00;29.00;;;;;10.42;100.00;102182.16;5080521;28;56882;-77
2023/04/03 02:38:37;;;;;;;;;28.33;27.33;;;;;10.43;100.00;102178.53;5080740;28;45323;-78
2023/04/03 02:41:05;;;;;;;;;28.33;26.00;;;;;10.44;100.00;102181.03;5062971;28;45392;-77
2023/04/03 02:43:31;;;;;;;;;29.33;29.33;;;;;10.46;100.00;102176.47;5079529;28;46009;-77
2023/04/03 02:45:56;;;;;;;;;28.67;26.33;;;;;10.31;100.00;102154.75;5080962;28;46297;-77
2023/04/03 02:48:22;;;;;;;;;28.67;27.00;;;;;10.46;100.00;102172.97;5079198;28;45216;-77
2023/04/03 02:50:47;;;;;;;;;26.67;23.67;;;;;10.45;100.00;102166.81;5079771;28;45270;-78
2023/04/03 02:53:12;;;;;;;;;26.67;26.00;;;;;10.51;100.00;102169.91;5080158;28;45514;-78
2023/04/03 02:55:38;;;;;;;;;27.33;24.67;;;;;10.55;100.00;102168.63;5080906;28;46600;-78
2023/04/03 02:58:03;;;;;;;;;28.33;26.33;;;;;10.55;100.00;102179.28;5062526;28;45218;-78
2023/04/03 03:00:29;;;;;;;;;27.67;24.00;;;;;10.42;100.00;102164.38;5062635;28;45329;-78
2023/04/03 03:02:54;;;;;;;;;30.00;27.33;;;;;10.45;100.00;102172.13;5062543;28;45416;-78
2023/04/03 03:05:20;;;;;;;;;27.00;25.33;;;;;10.47;100.00;102174.63;5062279;28;48622;-77
2023/04/03 03:07:45;;;;;;;;;30.33;27.67;;;;;10.44;100.00;102175.72;5080228;28;48602;-78
2023/04/03 03:10:10;;;;;;;;;26.67;25.67;;;;;10.36;100.00;102170.28;5080464;28;45382;-77
2023/04/03 03:12:35;;;;;;;;;31.33;28.00;;;;;10.44;100.00;102174.88;5080281;28;45256;-78
2023/04/03 03:15:01;;;;;;;;;27.00;24.33;;;;;10.36;100.00;102170.28;5079997;28;60410;-78
2023/04/03 03:17:26;;;;;;;;;29.67;29.67;;;;;10.26;100.00;102156.94;5080521;28;45382;-78
2023/04/03 03:19:51;;;;;;;;;27.00;24.33;;;;;10.36;100.00;102170.28;5062359;28;45439;-77
2023/04/03 03:22:17;;;;;;;;;31.33;28.00;;;;;10.33;100.00;102163.41;5078595;28;46474;-78
2023/04/03 03:24:42;;;;;;;;;30.67;26.67;;;;;10.32;100.00;102160.88;5080261;28;46094;-77
2023/04/03 03:27:07;;;;;;;;;27.67;24.33;;;;;10.27;100.00;102149.84;5080126;28;45387;-78
2023/04/03 03:29:33;;;;;;;;;28.67;25.67;;;;;10.35;100.00;102166.75;5080465;28;45480;-78
2023/04/03 03:31:58;;;;;;;;;22.00;20.67;;;;;10.33;100.00;102158.06;5061336;28;58208;-77
2023/04/03 03:34:23;;;;;;;;;25.00;22.33;;;;;10.40;100.00;102165.50;5080124;28;49597;-78
2023/04/03 03:36:49;;;;;;;;;23.00;22.33;;;;;10.40;100.00;102169.00;5079770;28;47694;-78
2023/04/03 03:39:15;;;;;;;;;28.33;24.33;;;;;10.34;100.00;102161.59;5078686;28;45287;-78
2023/04/03 03:41:40;;;;;;;;;21.00;21.00;;;;;10.30;100.00;102165.50;5080105;28;45351;-77
2023/04/03 03:44:05;;;;;;;;;23.67;23.00;;;;;10.23;100.00;102143.94;5061802;28;47326;-78
2023/04/03 03:46:31;;;;;;;;;23.67;23.00;;;;;10.28;100.00;102167.44;5079930;28;45406;-78
2023/04/03 03:48:56;;;;;;;;;26.33;23.67;;;;;10.17;100.00;102148.00;5080322;28;45224;-78
2023/04/03 03:51:21;;;;;;;;;29.00;23.67;;;;;10.21;100.00;102160.03;5078114;28;46805;-77
2023/04/03 03:53:47;;;;;;;;;26.00;26.00;;;;;10.14;100.00;102161.53;5079870;28;45215;-78
2023/04/03 03:56:12;;;;;;;;;27.67;25.00;;;;;9.87;100.00;102128.47;5079287;28;54323;-78
2023/04/03 03:58:37;;;;;;;;;25.67;24.00;;;;;10.13;100.00;102170.50;5078343;28;45564;-79
2023/04/03 04:01:05;;;;;;;;;37.75;33.25;;;;;10.17;100.00;102161.28;5061271;28;45963;-78
2023/04/03 04:03:30;;;;;;;;;66.75;50.25;;;;;10.15;100.00;102165.06;5079822;28;45922;-78
2023/04/03 04:05:56;;;;;;;;;34.67;30.00;;;;;10.20;100.00;102170.78;5078051;28;45949;-78
2023/04/03 04:08:21;;;;;;;;;41.75;33.50;;;;;10.12;100.00;102162.66;5072472;28;45406;-78
2023/04/03 04:10:46;;;;;;;;;30.00;27.00;;;;;10.02;100.00;102139.56;5073331;28;45487;-78
2023/04/03 04:13:12;;;;;;;;;23.00;21.33;;;;;10.10;100.00;102160.16;5079324;28;54011;-77
2023/04/03 04:15:37;;;;;;;;;32.33;29.33;;;;;10.11;100.00;102164.47;5061181;28;46057;-77
2023/04/03 04:18:03;;;;;;;;;59.75;48.50;;;;;10.08;100.00;102170.06;5079861;28;45337;-77
2023/04/03 04:20:28;;;;;;;;;50.75;39.00;;;;;10.11;100.00;102167.13;5061102;28;47245;-78
2023/04/03 04:22:53;;;;;;;;;24.67;24.67;;;;;10.02;100.00;102144.88;5078869;28;57976;-78
2023/04/03 04:25:19;;;;;;;;;28.00;27.67;;;;;10.16;100.00;102156.94;5079399;28;45360;-77
2023/04/03 04:27:44;;;;;;;;;56.25;44.25;;;;;10.07;100.00;102153.28;5079404;28;45324;-78
2023/04/03 04:30:10;;;;;;;;;20.00;18.33;;;;;10.12;100.00;102160.00;5077573;28;46034;-78
2023/04/03 04:32:36;;;;;;;;;26.00;25.33;;;;;9.80;100.00;102119.38;5061059;28;47567;-77
2023/04/03 04:35:03;;;;;;;;;16.67;15.67;;;;;10.03;100.00;102165.16;5079049;28;45395;-78
2023/04/03 04:37:29;;;;;;;;;24.33;23.67;;;;;10.00;100.00;102168.09;5079277;28;45258;-77
2023/04/03 04:39:54;;;;;;;;;25.00;21.67;;;;;9.95;100.00;102162.34;5078966;28;45801;-77
2023/04/03 04:42:19;;;;;;;;;45.75;38.00;;;;;9.82;100.00;102142.16;5079263;28;47571;-76
2023/04/03 04:44:45;;;;;;;;;28.50;25.00;;;;;10.01;100.00;102161.81;5060733;28;45876;-77
2023/04/03 04:47:10;;;;;;;;;24.00;22.33;;;;;10.02;100.00;102162.63;5079217;28;45244;-77
2023/04/03 04:49:35;;;;;;;;;25.67;25.67;;;;;10.04;100.00;102158.03;5079084;28;45544;-77
2023/04/03 04:52:01;;;;;;;;;26.67;26.67;;;;;9.84;100.00;102132.25;5079136;28;46126;-77
2023/04/03 04:54:26;;;;;;;;;27.00;24.33;;;;;10.06;100.00;102164.88;5078853;28;45258;-76
2023/04/03 04:56:51;;;;;;;;;23.67;21.00;;;;;10.01;100.00;102151.19;5078925;28;45254;-77
2023/04/03 04:59:17;;;;;;;;;18.00;17.00;;;;;10.13;100.00;102169.66;5078619;28;45333;-77
2023/04/03 05:01:45;;;;;;;;;20.00;20.00;;;;;9.82;100.00;102134.19;5078182;28;46128;-77
2023/04/03 05:04:12;;;;;;;;;26.67;24.00;;;;;9.96;100.00;102156.03;5078744;28;45179;-79
2023/04/03 05:06:37;;;;;;;;;48.00;37.25;;;;;10.02;100.00;102165.28;5079547;27;45335;-80
2023/04/03 05:09:03;;;;;;;;;28.33;28.00;;;;;9.80;99.58;102137.97;5065099;28;45260;-79
2023/04/03 05:11:28;;;;;;;;;28.00;25.33;;;;;9.70;98.70;102133.47;5080358;28;45310;-77
2023/04/03 05:13:54;;;;;;;;;25.33;22.00;;;;;9.65;98.43;102125.06;5080509;28;45554;-78
2023/04/03 05:16:19;;;;;;;;;23.00;23.00;;;;;9.96;98.54;102175.50;5067542;28;45512;-78
2023/04/03 05:18:44;;;;;;;;;23.67;20.00;;;;;9.69;97.97;102139.75;5060010;28;47283;-77
2023/04/03 05:21:10;;;;;;;;;20.67;19.00;;;;;9.62;98.53;102124.47;5082087;28;45500;-77
2023/04/03 05:23:36;;;;;;;;;28.00;27.67;;;;;9.97;98.33;102179.81;5081877;28;45449;-78
2023/04/03 05:26:01;;;;;;;;;19.67;19.67;;;;;9.93;98.31;102180.22;5081752;28;45438;-78
2023/04/03 05:28:26;;;;;;;;;19.67;19.33;;;;;9.84;97.72;102166.78;5081611;28;45462;-77
2023/04/03 05:30:57;;;;;;;;;22.00;22.00;;;;;9.85;97.44;102180.91;5082267;28;46029;-77
2023/04/03 05:33:23;;;;;;;;;21.00;20.00;;;;;9.75;97.92;102177.38;5081939;28;45760;-77
2023/04/03 05:35:49;;;;;;;;;20.33;20.33;;;;;9.76;97.70;102182.53;5081764;27;45244;-77
2023/04/03 05:38:14;;;;;;;;;28.00;25.00;;;;;9.77;97.91;102183.38;5081331;28;45505;-76
2023/04/03 05:40:40;;;;;;;;;20.00;20.00;;;;;9.77;97.43;102186.88;5081805;28;45413;-76
2023/04/03 05:43:05;;;;;;;;;22.33;21.67;;;;;9.77;97.43;102192.19;5081631;28;45457;-79
2023/04/03 05:45:30;;;;;;;;;20.00;19.33;;;;;9.76;97.67;102189.66;5082008;28;45460;-78
2023/04/03 05:47:56;;;;;;;;;22.33;19.67;;;;;9.77;97.70;102194.84;5063764;28;47363;-79
2023/04/03 05:50:21;;;;;;;;;28.67;25.33;;;;;9.81;97.94;102190.09;5081579;28;53823;-77
2023/04/03 05:52:49;;;;;;;;;23.00;20.33;;;;;9.79;97.45;102195.53;5067718;28;45308;-79
2023/04/03 05:55:15;;;;;;;;;73.75;57.00;;;;;9.79;98.12;102187.56;5082153;28;45236;-80
2023/04/03 05:57:40;;;;;;;;;27.00;25.00;;;;;9.76;98.12;102187.00;5081778;28;45454;-79
2023/04/03 06:00:09;;;;;;;;;23.00;20.33;;;;;9.85;97.77;102196.84;5081223;28;46037;-79
2023/04/03 06:02:35;;;;;;;;;18.00;18.00;;;;;9.72;97.83;102175.81;5063495;28;45362;-79
2023/04/03 06:05:01;;;;;;;;;22.67;21.00;;;;;9.77;97.65;102194.84;5081731;28;45370;-77
2023/04/03 06:07:27;;;;;;;;;24.33;23.33;;;;;9.82;97.76;102197.94;5081727;28;45284;-79
2023/04/03 06:09:55;;;;;;;;;26.00;24.00;;;;;9.75;97.17;102188.00;5077905;28;45615;-79
2023/04/03 06:12:21;;;;;;;;;20.00;20.00;;;;;9.78;97.67;102190.34;5072747;28;45369;-79
2023/04/03 06:14:47;;;;;;;;;25.33;23.00;;;;;9.78;97.70;102193.00;5081437;28;45349;-79
2023/04/03 06:17:13;;;;;;;;;22.00;17.67;;;;;9.75;97.48;102194.13;5081412;28;45479;-82
2023/04/03 06:19:39;;;;;;;;;18.67;18.67;;;;;9.84;97.63;102208.41;5068050;28;45349;-80
2023/04/03 06:22:04;;;;;;;;;21.67;21.67;;;;;9.75;97.55;102191.47;5071088;28;45412;-79
2023/04/03 06:24:31;;;;;;;;;52.75;40.00;;;;;9.70;98.04;102183.09;5056189;28;45379;-80
2023/04/03 06:26:57;;;;;;;;;28.33;24.67;;;;;9.74;97.70;102179.19;5081275;27;45355;-79
2023/04/03 06:29:23;;;;;;;;;20.67;20.00;;;;;9.86;97.37;102198.50;5081211;28;46449;-79
2023/04/03 06:31:50;;;;;;;;;60.25;46.75;;;;;9.80;98.08;102185.78;5067805;28;45493;-80
2023/04/03 06:34:16;;;;;;;;;63.25;50.50;;;;;9.86;97.83;102195.84;5080765;28;45260;-81
2023/04/03 06:36:42;;;;;;;;;32.33;28.67;;;;;9.97;97.66;102197.59;5067190;28;45536;-80
2023/04/03 06:39:12;;;;;;;;;30.33;27.00;;;;;9.91;97.99;102200.78;5062489;28;46837;-81
2023/04/03 06:41:38;;;;;;;;;68.25;55.25;;;;;10.01;97.07;102214.06;5080868;28;45362;-80
2023/04/03 06:44:03;;;;;;;;;31.33;28.00;;;;;9.91;97.04;102182.19;5062442;28;51130;-80
2023/04/03 06:46:28;;;;;;;;;27.00;23.33;;;;;10.00;96.91;102215.91;5080569;28;45546;-80
2023/04/03 06:48:54;;;;;;;;;22.00;21.67;;;;;10.00;96.83;102209.75;5081002;28;45901;-80
2023/04/03 06:51:28;;;;;;;;;20.33;20.00;;;;;10.01;96.51;102198.13;5080837;28;45310;-78
2023/04/03 06:53:57;;;;;;;;;22.33;18.00;;;;;10.00;96.37;102199.97;5078394;28;45312;-80
2023/04/03 06:56:22;;;;;;;;;19.33;18.33;;;;;10.00;96.33;102199.13;5079237;28;45730;-79
2023/04/03 06:58:48;;;;;;;;;32.33;29.00;;;;;10.12;96.51;102216.66;5061847;28;46994;-80
2023/04/03 07:01:16;;;;;;;;;69.50;54.50;;;;;10.14;96.73;102201.41;5078641;28;45769;-80
2023/04/03 07:03:42;;;;;;;;;17.67;17.00;;;;;10.23;95.88;102213.88;5064837;28;45784;-81
2023/04/03 07:06:11;;;;;;;;;20.00;17.33;;;;;10.18;95.65;102209.94;5060553;28;45533;-80
2023/04/03 07:08:36;;;;;;;;;21.00;21.00;;;;;10.22;95.56;102209.56;5070291;28;48612;-80
2023/04/03 07:11:01;;;;;;;;;73.75;59.50;;;;;10.23;96.04;102216.53;5079348;28;47763;-80
2023/04/03 07:13:27;;;;;;;;;88.00;76.00;;;;;10.27;96.61;102202.97;5079924;28;45302;-80
2023/04/03 07:15:53;;;;;;;;;16.67;16.67;;;;;10.35;96.01;102217.25;5080470;28;45409;-80
2023/04/03 07:18:18;;;;;;;;;23.33;23.33;;;;;10.46;95.97;102219.00;5061830;28;47460;-81
2023/04/03 07:20:44;;;;;;;;;27.33;24.00;;;;;10.44;96.35;102199.66;5080165;28;45347;-81
2023/04/03 07:23:10;;;;;;;;;18.67;17.00;;;;;10.57;96.08;102215.38;5079878;28;45506;-80
2023/04/03 07:25:36;;;;;;;;;51.75;38.00;;;;;10.67;96.29;102223.38;5061959;28;46676;-80
2023/04/03 07:28:01;;;;;;;;;77.00;57.25;;;;;10.62;95.32;102209.63;5079653;28;45665;-80
2023/04/03 07:30:27;;;;;;;;;76.25;57.50;;;;;10.72;94.94;102212.31;5079185;28;45382;-81
2023/04/03 07:32:52;;;;;;;;;60.00;46.00;;;;;10.68;94.87;102203.78;5061938;27;45431;-80
2023/04/03 07:35:18;;;;;;;;;111.00;92.00;;;;;10.85;94.49;102214.69;5077803;27;45407;-80
2023/04/03 07:37:44;;;;;;;;;81.75;70.00;;;;;10.95;94.77;102214.69;5076887;28;46309;-80
2023/04/03 07:40:09;;;;;;;;;19.33;19.00;;;;;10.89;93.62;102200.13;5058865;28;45368;-80
2023/04/03 07:42:36;;;;;;;;;58.25;47.25;;;;;11.05;94.12;102210.19;5076073;28;45367;-81
2023/04/03 07:45:02;;;;;;;;;38.00;34.00;;;;;11.05;93.28;102212.84;5064280;28;46044;-80
2023/04/03 07:47:31;;;;;;;;;45.75;38.50;;;;;11.14;93.25;102205.88;5073400;28;46522;-83
2023/04/03 07:49:57;;;;;;;;;54.50;45.00;;;;;11.17;92.81;102204.75;5072243;28;45505;-81
2023/04/03 07:52:22;;;;;;;;;41.33;33.67;;;;;11.35;92.88;102215.50;5045668;28;45430;-79
2023/04/03 07:54:48;;;;;;;;;33.33;32.00;;;;;11.21;91.79;102190.16;5071492;28;45602;-80
2023/04/03 07:57:13;;;;;;;;;38.67;34.00;;;;;11.27;91.63;102194.06;5057016;28;55929;-81
2023/04/03 07:59:39;;;;;;;;;25.33;23.00;;;;;11.39;91.90;102219.53;5064074;28;45311;-81
2023/04/03 08:02:05;;;;;;;;;125.50;110.25;;;;;11.52;90.74;102223.72;5069271;28;45442;-79
2023/04/03 08:04:30;;;;;;;;;82.50;67.75;;;;;11.46;88.88;102207.34;5060166;28;45218;-78
2023/04/03 08:06:55;;;;;;;;;51.25;42.25;;;;;11.56;88.34;102219.78;5065794;28;46113;-80
2023/04/03 08:09:21;;;;;;;;;17.00;16.00;;;;;11.46;87.17;102207.34;5054065;28;45463;-80
2023/04/03 08:11:46;;;;;;;;;8.00;8.00;;;;;11.43;84.93;102209.47;5041214;28;45469;-80
2023/04/03 08:14:16;;;;;;;;;33.67;30.67;;;;;11.50;85.89;102215.88;5055633;28;45979;-79
2023/04/03 08:16:42;;;;;;;;;75.00;54.50;;;;;11.44;85.35;102217.28;5078868;28;45928;-81
2023/04/03 08:19:07;;;;;;;;;44.33;36.33;;;;;11.41;83.92;102203.44;5071459;28;45462;-79
2023/04/03 08:21:33;;;;;;;;;86.00;74.25;;;;;11.47;84.25;102219.66;5070078;28;45409;-80
2023/04/03 08:23:58;;;;;;;;;77.50;58.50;;;;;11.48;84.76;102218.69;5046240;28;45970;-80
2023/04/03 08:26:24;;;;;;;;;58.00;46.50;;;;;11.43;83.85;102204.97;5064353;28;46097;-79
2023/04/03 08:28:49;;;;;;;;;31.33;28.00;;;;;11.46;84.81;102215.31;5070011;28;48605;-79
2023/04/03 08:31:18;;;;;;;;;49.00;38.25;;;;;11.60;82.11;102226.50;5057536;28;45476;-80
2023/04/03 08:33:44;;;;;;;;;13.00;12.33;;;;;11.61;83.36;102223.69;5053636;28;46121;-78
2023/04/03 08:36:27;;;;;;;;;82.25;69.50;;;;;11.61;83.66;102236.16;5062118;28;46166;-79
2023/04/03 08:38:53;;;;;;;;;45.25;37.50;;;;;11.61;83.89;102212.19;5046191;28;46337;-79
2023/04/03 08:41:39;;;;;;;;;66.25;49.50;;;;;11.70;82.63;102232.63;5057940;28;45484;-79
2023/04/03 08:44:04;;;;;;;;;5.33;5.33;;;;;11.71;79.52;102220.16;5073210;28;45394;-79
2023/04/03 08:46:59;;;;;;;;;53.00;41.50;;;;;11.68;80.00;102225.78;5062269;28;47056;-80
2023/04/03 08:50:10;;;;;;;;;67.00;50.75;;;;;11.65;79.24;102221.59;5045253;28;45426;-79
2023/04/03 08:52:38;;;;;;;;;109.33;103.00;;;;;11.70;81.68;102218.50;5080334;28;45346;-81
2023/04/03 08:55:07;;;;;;;;;106.50;92.25;;;;;11.70;78.80;102218.50;5056527;28;46189;-79
2023/04/03 08:57:42;;;;;;;;;46.75;37.00;;;;;11.54;78.07;102193.31;5059274;28;48028;-79
2023/04/03 09:00:13;;;;;;;;;94.50;80.25;;;;;11.63;76.52;102218.22;5071467;28;45380;-79
2023/04/03 09:02:49;;;;;;;;;28.33;24.00;;;;;11.62;77.04;102212.06;5074550;28;45332;-79
2023/04/03 09:05:16;;;;;;;;;13.00;9.67;;;;;11.77;77.50;102205.44;5070955;28;46041;-79
2023/04/03 09:07:47;;;;;;;;;18.00;17.00;;;;;11.87;77.57;102206.22;5081529;28;45486;-79
2023/04/03 09:10:15;;;;;;;;;10.33;9.00;;;;;12.01;77.17;102215.56;5064007;28;45489;-79
2023/04/03 09:12:53;;;;;;;;;71.75;54.50;;;;;11.95;73.91;102197.50;5063972;28;45418;-79
2023/04/03 09:15:23;;;;;;;;;46.25;36.00;;;;;11.92;75.34;102185.31;5081425;28;45291;-79
2023/04/03 09:18:16;;;;;;;;;74.50;55.50;;;;;12.20;75.40;102209.31;5079470;28;47453;-80
2023/04/03 09:21:07;;;;;;;;;54.75;43.25;;;;;12.24;75.95;102201.84;5071292;28;45312;-79
2023/04/03 09:23:43;;;;;;;;;36.67;30.33;;;;;12.37;74.29;102201.50;5063671;28;45457;-79
2023/04/03 09:26:28;;;;;;;;;55.25;45.25;;;;;12.37;73.81;102194.31;5062218;28;47225;-79
2023/04/03 09:28:58;;;;;;;;;8.00;7.00;;;;;12.33;74.18;102181.47;5081691;27;46233;-79
2023/04/03 09:31:28;;;;;;;;;12.00;12.00;;;;;12.51;73.35;102202.81;5081760;28;45467;-79
2023/04/03 09:33:58;;;;;;;;;8.00;8.00;;;;;12.50;73.34;102193.97;5081939;28;45500;-81
2023/04/03 09:36:45;;;;;;;;;103.00;91.25;;;;;12.38;72.23;102187.19;5081467;28;45493;-80
2023/04/03 09:39:21;;;;;;;;;70.75;54.50;;;;;12.42;68.04;102199.22;5067931;28;46221;-79
2023/04/03 09:42:23;;;;;;;;;11.33;10.00;;;;;12.36;68.54;102199.81;5080349;28;45387;-78
2023/04/03 09:45:04;;;;;;;;;75.50;59.00;;;;;12.19;67.62;102181.00;5081797;28;45338;-79
2023/04/03 09:47:33;;;;;;;;;34.33;27.33;;;;;12.22;67.51;102191.34;5051987;28;48076;-78
2023/04/03 09:50:14;;;;;;;;;9.00;8.00;;;;;12.32;68.62;102199.28;5081499;28;46227;-78
2023/04/03 09:52:44;;;;;;;;;7.67;7.00;;;;;12.34;68.54;102186.66;5080344;28;45364;-78
2023/04/03 09:55:18;;;;;;;;;10.00;10.00;;;;;12.49;68.95;102192.28;5081225;28;45325;-77
2023/04/03 09:57:45;;;;;;;;;28.67;25.33;;;;;12.53;68.76;102184.84;5080952;28;45360;-77
2023/04/03 10:00:35;;;;;;;;;87.25;80.50;;;;;12.58;68.24;102179.03;5067988;28;46127;-78
2023/04/03 10:03:02;;;;;;;;;73.25;54.75;;;;;12.61;66.71;102171.56;5063217;28;45309;-78
2023/04/03 10:05:38;;;;;;;;;158.00;129.33;;;;;12.80;66.32;102179.56;5063172;28;45297;-78
2023/04/03 10:08:31;;;;;;;;;35.00;27.33;;;;;12.95;67.36;102188.69;5081291;28;45218;-78
2023/04/03 10:11:11;;;;;;;;;52.50;41.75;;;;;13.06;67.08;102184.09;5060150;28;48011;-78
2023/04/03 10:13:48;;;;;;;;;38.67;32.33;;;;;13.22;66.42;102188.72;5081374;28;45378;-78
2023/04/03 10:16:20;;;;;;;;;9.00;8.00;;;;;13.41;65.25;102189.53;5081362;28;45441;-77
2023/04/03 10:18:53;;;;;;;;;7.00;6.00;;;;;13.50;64.45;102180.59;5063149;28;47401;-78
2023/04/03 10:21:27;;;;;;;;;9.33;9.33;;;;;13.66;63.76;102189.69;5081146;28;45304;-78
2023/04/03 10:24:16;;;;;;;;;8.33;8.33;;;;;13.71;63.08;102172.16;5080781;28;45240;-78
2023/04/03 10:26:45;;;;;;;;;48.25;38.50;;;;;13.96;64.32;102176.78;5080844;28;45649;-77
2023/04/03 10:29:40;;;;;;;;;13.00;12.33;;;;;14.10;63.20;102173.47;5081001;28;45350;-76
2023/04/03 10:32:28;;;;;;;;;7.33;7.33;;;;;14.27;60.38;102176.19;5048976;28;46383;-77
2023/04/03 10:35:32;;;;;;;;;56.00;42.00;;;;;14.42;61.89;102156.84;5078697;28;45454;-77
2023/04/03 10:38:32;;;;;;;;;24.00;20.33;;;;;14.44;59.76;102144.97;5062103;28;45563;-77
2023/04/03 10:41:07;;;;;;;;;12.00;12.00;;;;;14.75;60.59;102156.84;5050545;28;45296;-78
2023/04/03 10:43:52;;;;;;;;;20.67;19.00;;;;;14.91;59.72;102152.53;5061647;28;47396;-78
2023/04/03 10:46:28;;;;;;;;;72.00;54.75;;;;;14.95;56.67;102146.69;5062429;28;45374;-78
2023/04/03 10:49:19;;;;;;;;;19.00;18.33;;;;;15.06;57.47;102147.34;5080515;28;45352;-77
2023/04/03 10:52:15;;;;;;;;;52.00;39.67;;;;;15.15;58.18;102128.41;5079816;28;45249;-78
2023/04/03 10:55:04;;;;;;;;;7.00;5.67;;;;;15.34;56.89;102138.91;5080543;28;46309;-78
2023/04/03 10:57:30;;;;;;;;;93.75;80.00;;;;;15.40;55.45;102116.78;5078792;28;45344;-78
2023/04/03 11:00:03;;;;;;;;;69.25;56.50;;;;;15.44;54.49;102123.47;5080591;28;45165;-78
2023/04/03 11:02:32;;;;;;;;;9.00;9.00;;;;;15.40;52.76;102116.78;5080532;28;45472;-78
2023/04/03 11:05:05;;;;;;;;;58.50;44.75;;;;;15.46;53.80;102123.28;5080282;28;45300;-78
2023/04/03 11:07:36;;;;;;;;;79.50;73.00;;;;;15.56;52.30;102125.78;5061695;28;45353;-77
2023/04/03 11:10:13;;;;;;;;;66.00;52.50;;;;;15.64;53.35;102125.72;5079875;28;45363;-77
2023/04/03 11:12:59;;;;;;;;;82.25;74.50;;;;;15.74;53.50;102123.69;5080320;28;45430;-78
2023/04/03 11:15:27;;;;;;;;;48.67;38.33;;;;;15.79;53.40;102109.75;5080496;28;45514;-77